sensor_id;sensor_type;location;lat;lon;timestamp;P1;durP1;ratioP1;P2;durP2;ratioP2
22111;SDS011;11222;50.872;4.312;2023-02-21T00:01:54;41.50;;;21.60;;
22111;SDS011;11222;50.872;4.312;2023-02-21T00:04:39;45.70;;;23.10;;
22111;SDS011;11222;50.872;4.312;2023-02-21T00:07:23;45.33;;;24.47;;
22111;SDS011;11222;50.872;4.312;2023-02-21T00:10:07;62.67;;;28.63;;
22111;SDS011;11222;50.872;4.312;2023-02-21T00:12:53;63.15;;;28.95;;
22111;SDS011;11222;50.872;4.312;2023-02-21T00:15:37;60.75;;;26.88;;
22111;SDS011;11222;50.872;4.312;2023-02-21T00:18:21;63.42;;;29.70;;
22111;SDS011;11222;50.872;4.312;2023-02-21T00:21:05;63.60;;;28.25;;
22111;SDS011;11222;50.872;4.312;2023-02-21T00:23:49;55.88;;;25.70;;
22111;SDS011;11222;50.872;4.312;2023-02-21T00:26:34;66.07;;;28.25;;
22111;SDS011;11222;50.872;4.312;2023-02-21T00:29:18;59.95;;;27.40;;
22111;SDS011;11222;50.872;4.312;2023-02-21T00:32:02;60.42;;;28.15;;
22111;SDS011;11222;50.872;4.312;2023-02-21T00:34:46;57.08;;;26.70;;
22111;SDS011;11222;50.872;4.312;2023-02-21T00:37:30;61.30;;;27.20;;
22111;SDS011;11222;50.872;4.312;2023-02-21T00:40:14;61.55;;;28.13;;
22111;SDS011;11222;50.872;4.312;2023-02-21T00:42:59;64.28;;;27.25;;
22111;SDS011;11222;50.872;4.312;2023-02-21T00:45:43;66.13;;;28.53;;
22111;SDS011;11222;50.872;4.312;2023-02-21T00:48:28;64.60;;;28.10;;
22111;SDS011;11222;50.872;4.312;2023-02-21T00:51:13;64.20;;;28.50;;
22111;SDS011;11222;50.872;4.312;2023-02-21T00:53:57;66.05;;;29.35;;
22111;SDS011;11222;50.872;4.312;2023-02-21T00:56:41;65.72;;;30.35;;
22111;SDS011;11222;50.872;4.312;2023-02-21T00:59:25;66.63;;;28.30;;
22111;SDS011;11222;50.872;4.312;2023-02-21T01:02:09;66.80;;;28.35;;
22111;SDS011;11222;50.872;4.312;2023-02-21T01:04:53;68.10;;;28.85;;
22111;SDS011;11222;50.872;4.312;2023-02-21T01:07:38;72.03;;;29.83;;
22111;SDS011;11222;50.872;4.312;2023-02-21T01:10:23;54.97;;;24.00;;
22111;SDS011;11222;50.872;4.312;2023-02-21T01:13:07;43.75;;;21.58;;
22111;SDS011;11222;50.872;4.312;2023-02-21T01:15:51;37.23;;;19.60;;
22111;SDS011;11222;50.872;4.312;2023-02-21T01:18:35;38.15;;;19.02;;
22111;SDS011;11222;50.872;4.312;2023-02-21T01:21:19;35.58;;;17.98;;
22111;SDS011;11222;50.872;4.312;2023-02-21T01:24:04;36.03;;;17.55;;
22111;SDS011;11222;50.872;4.312;2023-02-21T01:26:49;36.35;;;18.00;;
22111;SDS011;11222;50.872;4.312;2023-02-21T01:29:34;39.35;;;18.85;;
22111;SDS011;11222;50.872;4.312;2023-02-21T01:32:19;35.67;;;18.85;;
22111;SDS011;11222;50.872;4.312;2023-02-21T01:35:03;44.40;;;20.50;;
22111;SDS011;11222;50.872;4.312;2023-02-21T01:37:47;46.92;;;21.58;;
22111;SDS011;11222;50.872;4.312;2023-02-21T01:40:31;49.08;;;21.83;;
22111;SDS011;11222;50.872;4.312;2023-02-21T01:43:19;53.38;;;23.90;;
22111;SDS011;11222;50.872;4.312;2023-02-21T01:46:08;59.60;;;25.08;;
22111;SDS011;11222;50.872;4.312;2023-02-21T01:48:55;54.13;;;23.48;;
22111;SDS011;11222;50.872;4.312;2023-02-21T01:51:41;44.30;;;21.00;;
22111;SDS011;11222;50.872;4.312;2023-02-21T01:54:29;47.95;;;20.02;;
22111;SDS011;11222;50.872;4.312;2023-02-21T01:57:16;47.85;;;20.10;;
22111;SDS011;11222;50.872;4.312;2023-02-21T02:00:03;47.95;;;21.13;;
22111;SDS011;11222;50.872;4.312;2023-02-21T02:05:39;48.22;;;20.70;;
22111;SDS011;11222;50.872;4.312;2023-02-21T02:08:26;50.92;;;21.10;;
22111;SDS011;11222;50.872;4.312;2023-02-21T02:11:19;50.55;;;21.35;;
22111;SDS011;11222;50.872;4.312;2023-02-21T02:16:49;59.28;;;22.38;;
22111;SDS011;11222;50.872;4.312;2023-02-21T02:25:20;62.70;;;23.30;;
22111;SDS011;11222;50.872;4.312;2023-02-21T02:30:42;55.22;;;22.13;;
22111;SDS011;11222;50.872;4.312;2023-02-21T02:36:05;56.55;;;23.13;;
22111;SDS011;11222;50.872;4.312;2023-02-21T02:38:53;56.13;;;22.83;;
22111;SDS011;11222;50.872;4.312;2023-02-21T02:46:44;58.25;;;22.20;;
22111;SDS011;11222;50.872;4.312;2023-02-21T02:49:19;52.20;;;21.13;;
22111;SDS011;11222;50.872;4.312;2023-02-21T02:51:49;48.38;;;20.02;;
22111;SDS011;11222;50.872;4.312;2023-02-21T02:54:16;43.50;;;19.25;;
22111;SDS011;11222;50.872;4.312;2023-02-21T02:56:41;48.53;;;20.05;;
22111;SDS011;11222;50.872;4.312;2023-02-21T02:59:09;39.33;;;17.88;;
22111;SDS011;11222;50.872;4.312;2023-02-21T03:02:11;42.58;;;18.08;;
22111;SDS011;11222;50.872;4.312;2023-02-21T03:04:43;50.65;;;20.55;;
22111;SDS011;11222;50.872;4.312;2023-02-21T03:07:25;51.50;;;20.40;;
22111;SDS011;11222;50.872;4.312;2023-02-21T03:15:20;51.55;;;20.20;;
22111;SDS011;11222;50.872;4.312;2023-02-21T03:17:53;51.40;;;20.00;;
22111;SDS011;11222;50.872;4.312;2023-02-21T03:20:23;44.78;;;18.23;;
22111;SDS011;11222;50.872;4.312;2023-02-21T03:22:52;46.55;;;18.33;;
22111;SDS011;11222;50.872;4.312;2023-02-21T03:25:20;47.67;;;19.13;;
22111;SDS011;11222;50.872;4.312;2023-02-21T03:27:47;47.60;;;18.15;;
22111;SDS011;11222;50.872;4.312;2023-02-21T03:30:16;42.75;;;18.52;;
22111;SDS011;11222;50.872;4.312;2023-02-21T03:32:44;44.17;;;17.52;;
22111;SDS011;11222;50.872;4.312;2023-02-21T03:35:13;33.72;;;15.13;;
22111;SDS011;11222;50.872;4.312;2023-02-21T03:37:43;34.45;;;15.00;;
22111;SDS011;11222;50.872;4.312;2023-02-21T03:40:23;34.28;;;15.98;;
22111;SDS011;11222;50.872;4.312;2023-02-21T03:42:49;43.60;;;17.52;;
22111;SDS011;11222;50.872;4.312;2023-02-21T03:45:16;44.75;;;17.45;;
22111;SDS011;11222;50.872;4.312;2023-02-21T03:47:42;43.17;;;17.85;;
22111;SDS011;11222;50.872;4.312;2023-02-21T03:50:08;41.22;;;17.00;;
22111;SDS011;11222;50.872;4.312;2023-02-21T03:52:33;47.38;;;17.63;;
22111;SDS011;11222;50.872;4.312;2023-02-21T03:54:59;46.30;;;17.25;;
22111;SDS011;11222;50.872;4.312;2023-02-21T03:57:25;49.08;;;18.13;;
22111;SDS011;11222;50.872;4.312;2023-02-21T03:59:51;48.38;;;17.85;;
22111;SDS011;11222;50.872;4.312;2023-02-21T04:02:16;47.88;;;18.30;;
22111;SDS011;11222;50.872;4.312;2023-02-21T04:04:43;47.17;;;17.15;;
22111;SDS011;11222;50.872;4.312;2023-02-21T04:07:09;44.00;;;16.88;;
22111;SDS011;11222;50.872;4.312;2023-02-21T04:09:36;45.75;;;18.23;;
22111;SDS011;11222;50.872;4.312;2023-02-21T04:12:03;46.47;;;17.70;;
22111;SDS011;11222;50.872;4.312;2023-02-21T04:14:29;51.58;;;17.20;;
22111;SDS011;11222;50.872;4.312;2023-02-21T04:16:55;52.88;;;18.15;;
22111;SDS011;11222;50.872;4.312;2023-02-21T04:19:20;41.25;;;15.98;;
22111;SDS011;11222;50.872;4.312;2023-02-21T04:21:46;43.65;;;17.40;;
22111;SDS011;11222;50.872;4.312;2023-02-21T04:24:12;39.28;;;15.95;;
22111;SDS011;11222;50.872;4.312;2023-02-21T04:26:37;46.85;;;16.95;;
22111;SDS011;11222;50.872;4.312;2023-02-21T04:29:03;46.63;;;17.30;;
22111;SDS011;11222;50.872;4.312;2023-02-21T04:31:30;38.38;;;14.95;;
22111;SDS011;11222;50.872;4.312;2023-02-21T04:33:56;43.15;;;15.48;;
22111;SDS011;11222;50.872;4.312;2023-02-21T04:36:22;43.17;;;16.48;;
22111;SDS011;11222;50.872;4.312;2023-02-21T04:38:48;45.17;;;16.60;;
22111;SDS011;11222;50.872;4.312;2023-02-21T04:41:14;40.65;;;15.93;;
22111;SDS011;11222;50.872;4.312;2023-02-21T04:43:41;38.90;;;14.85;;
22111;SDS011;11222;50.872;4.312;2023-02-21T04:46:07;37.20;;;14.00;;
22111;SDS011;11222;50.872;4.312;2023-02-21T04:48:33;41.88;;;15.85;;
22111;SDS011;11222;50.872;4.312;2023-02-21T04:50:59;45.67;;;17.52;;
22111;SDS011;11222;50.872;4.312;2023-02-21T04:53:26;42.88;;;16.90;;
22111;SDS011;11222;50.872;4.312;2023-02-21T04:55:52;45.40;;;17.35;;
22111;SDS011;11222;50.872;4.312;2023-02-21T04:58:17;42.13;;;15.95;;
22111;SDS011;11222;50.872;4.312;2023-02-21T05:00:43;45.00;;;16.92;;
22111;SDS011;11222;50.872;4.312;2023-02-21T05:03:09;49.47;;;17.00;;
22111;SDS011;11222;50.872;4.312;2023-02-21T05:05:34;50.15;;;16.95;;
22111;SDS011;11222;50.872;4.312;2023-02-21T05:08:00;44.33;;;16.08;;
22111;SDS011;11222;50.872;4.312;2023-02-21T05:10:26;34.53;;;13.90;;
22111;SDS011;11222;50.872;4.312;2023-02-21T05:12:51;36.97;;;13.60;;
22111;SDS011;11222;50.872;4.312;2023-02-21T05:15:17;38.70;;;14.65;;
22111;SDS011;11222;50.872;4.312;2023-02-21T05:17:43;42.65;;;15.05;;
22111;SDS011;11222;50.872;4.312;2023-02-21T05:20:10;38.60;;;14.02;;
22111;SDS011;11222;50.872;4.312;2023-02-21T05:22:39;44.40;;;15.35;;
22111;SDS011;11222;50.872;4.312;2023-02-21T05:25:15;35.10;;;13.77;;
22111;SDS011;11222;50.872;4.312;2023-02-21T05:27:42;34.80;;;13.82;;
22111;SDS011;11222;50.872;4.312;2023-02-21T05:30:08;36.92;;;13.27;;
22111;SDS011;11222;50.872;4.312;2023-02-21T05:32:34;38.42;;;14.15;;
22111;SDS011;11222;50.872;4.312;2023-02-21T05:35:00;38.95;;;15.07;;
22111;SDS011;11222;50.872;4.312;2023-02-21T05:37:26;44.80;;;14.90;;
22111;SDS011;11222;50.872;4.312;2023-02-21T05:39:51;43.70;;;16.15;;
22111;SDS011;11222;50.872;4.312;2023-02-21T05:42:17;40.22;;;15.10;;
22111;SDS011;11222;50.872;4.312;2023-02-21T05:44:44;44.55;;;15.73;;
22111;SDS011;11222;50.872;4.312;2023-02-21T05:47:10;43.67;;;14.65;;
22111;SDS011;11222;50.872;4.312;2023-02-21T05:49:37;41.13;;;14.90;;
22111;SDS011;11222;50.872;4.312;2023-02-21T05:52:03;37.63;;;14.10;;
22111;SDS011;11222;50.872;4.312;2023-02-21T05:54:29;44.85;;;15.18;;
22111;SDS011;11222;50.872;4.312;2023-02-21T05:56:55;44.53;;;15.32;;
22111;SDS011;11222;50.872;4.312;2023-02-21T05:59:21;40.92;;;14.82;;
22111;SDS011;11222;50.872;4.312;2023-02-21T06:01:47;43.05;;;15.30;;
22111;SDS011;11222;50.872;4.312;2023-02-21T06:04:14;39.65;;;13.82;;
22111;SDS011;11222;50.872;4.312;2023-02-21T06:06:40;42.30;;;14.77;;
22111;SDS011;11222;50.872;4.312;2023-02-21T06:09:06;39.20;;;14.23;;
22111;SDS011;11222;50.872;4.312;2023-02-21T06:11:33;38.25;;;13.07;;
22111;SDS011;11222;50.872;4.312;2023-02-21T06:14:02;37.03;;;13.13;;
22111;SDS011;11222;50.872;4.312;2023-02-21T06:16:32;39.45;;;12.43;;
22111;SDS011;11222;50.872;4.312;2023-02-21T06:19:00;38.40;;;13.23;;
22111;SDS011;11222;50.872;4.312;2023-02-21T06:21:26;35.65;;;11.98;;
22111;SDS011;11222;50.872;4.312;2023-02-21T06:23:52;36.67;;;12.45;;
22111;SDS011;11222;50.872;4.312;2023-02-21T06:26:18;28.88;;;11.38;;
22111;SDS011;11222;50.872;4.312;2023-02-21T06:28:45;31.40;;;12.00;;
22111;SDS011;11222;50.872;4.312;2023-02-21T06:31:11;30.90;;;11.13;;
22111;SDS011;11222;50.872;4.312;2023-02-21T06:33:37;29.00;;;10.60;;
22111;SDS011;11222;50.872;4.312;2023-02-21T06:36:03;26.05;;;10.07;;
22111;SDS011;11222;50.872;4.312;2023-02-21T06:38:34;28.33;;;10.00;;
22111;SDS011;11222;50.872;4.312;2023-02-21T06:41:03;29.83;;;10.32;;
22111;SDS011;11222;50.872;4.312;2023-02-21T06:43:33;28.33;;;10.70;;
22111;SDS011;11222;50.872;4.312;2023-02-21T06:46:00;32.08;;;12.02;;
22111;SDS011;11222;50.872;4.312;2023-02-21T06:48:26;37.85;;;12.23;;
22111;SDS011;11222;50.872;4.312;2023-02-21T06:50:52;38.95;;;12.55;;
22111;SDS011;11222;50.872;4.312;2023-02-21T06:53:18;35.55;;;11.15;;
22111;SDS011;11222;50.872;4.312;2023-02-21T06:55:43;35.80;;;13.38;;
22111;SDS011;11222;50.872;4.312;2023-02-21T06:58:09;39.35;;;12.50;;
22111;SDS011;11222;50.872;4.312;2023-02-21T07:00:35;40.35;;;12.52;;
22111;SDS011;11222;50.872;4.312;2023-02-21T07:03:01;43.90;;;13.55;;
22111;SDS011;11222;50.872;4.312;2023-02-21T07:05:27;41.67;;;13.73;;
22111;SDS011;11222;50.872;4.312;2023-02-21T07:07:53;40.88;;;14.48;;
22111;SDS011;11222;50.872;4.312;2023-02-21T07:10:19;39.05;;;13.52;;
22111;SDS011;11222;50.872;4.312;2023-02-21T07:12:45;40.25;;;13.32;;
22111;SDS011;11222;50.872;4.312;2023-02-21T07:15:10;45.97;;;14.15;;
22111;SDS011;11222;50.872;4.312;2023-02-21T07:17:36;49.40;;;15.88;;
22111;SDS011;11222;50.872;4.312;2023-02-21T07:20:02;51.05;;;15.55;;
22111;SDS011;11222;50.872;4.312;2023-02-21T07:22:28;48.83;;;15.27;;
22111;SDS011;11222;50.872;4.312;2023-02-21T07:24:55;44.17;;;15.27;;
22111;SDS011;11222;50.872;4.312;2023-02-21T07:27:21;45.22;;;13.57;;
22111;SDS011;11222;50.872;4.312;2023-02-21T07:29:47;45.55;;;14.32;;
22111;SDS011;11222;50.872;4.312;2023-02-21T07:32:17;48.72;;;15.90;;
22111;SDS011;11222;50.872;4.312;2023-02-21T07:34:43;38.33;;;12.95;;
22111;SDS011;11222;50.872;4.312;2023-02-21T07:37:10;31.13;;;12.38;;
22111;SDS011;11222;50.872;4.312;2023-02-21T07:39:36;37.40;;;12.65;;
22111;SDS011;11222;50.872;4.312;2023-02-21T07:42:02;37.72;;;13.27;;
22111;SDS011;11222;50.872;4.312;2023-02-21T07:44:29;35.25;;;12.32;;
22111;SDS011;11222;50.872;4.312;2023-02-21T07:46:55;40.72;;;13.82;;
22111;SDS011;11222;50.872;4.312;2023-02-21T07:49:21;46.35;;;15.05;;
22111;SDS011;11222;50.872;4.312;2023-02-21T07:51:47;53.75;;;17.73;;
22111;SDS011;11222;50.872;4.312;2023-02-21T07:54:14;62.35;;;18.60;;
22111;SDS011;11222;50.872;4.312;2023-02-21T07:56:47;63.60;;;18.95;;
22111;SDS011;11222;50.872;4.312;2023-02-21T07:59:13;63.17;;;19.05;;
22111;SDS011;11222;50.872;4.312;2023-02-21T08:01:40;60.90;;;18.23;;
22111;SDS011;11222;50.872;4.312;2023-02-21T08:04:06;61.85;;;18.83;;
22111;SDS011;11222;50.872;4.312;2023-02-21T08:06:34;52.30;;;17.38;;
22111;SDS011;11222;50.872;4.312;2023-02-21T08:09:01;50.75;;;16.80;;
22111;SDS011;11222;50.872;4.312;2023-02-21T08:11:27;52.08;;;18.13;;
22111;SDS011;11222;50.872;4.312;2023-02-21T08:13:53;46.25;;;16.58;;
22111;SDS011;11222;50.872;4.312;2023-02-21T08:16:18;53.03;;;18.20;;
22111;SDS011;11222;50.872;4.312;2023-02-21T08:18:47;58.10;;;19.30;;
22111;SDS011;11222;50.872;4.312;2023-02-21T08:21:15;59.95;;;18.45;;
22111;SDS011;11222;50.872;4.312;2023-02-21T08:23:41;55.92;;;19.70;;
22111;SDS011;11222;50.872;4.312;2023-02-21T08:26:06;58.08;;;20.15;;
22111;SDS011;11222;50.872;4.312;2023-02-21T08:28:32;55.83;;;20.23;;
22111;SDS011;11222;50.872;4.312;2023-02-21T08:30:58;58.13;;;18.75;;
22111;SDS011;11222;50.872;4.312;2023-02-21T08:33:23;52.60;;;18.02;;
22111;SDS011;11222;50.872;4.312;2023-02-21T08:35:49;48.45;;;17.83;;
22111;SDS011;11222;50.872;4.312;2023-02-21T08:38:17;52.78;;;17.15;;
22111;SDS011;11222;50.872;4.312;2023-02-21T08:40:43;47.05;;;16.70;;
22111;SDS011;11222;50.872;4.312;2023-02-21T08:43:09;42.95;;;15.35;;
22111;SDS011;11222;50.872;4.312;2023-02-21T08:45:35;39.30;;;13.65;;
22111;SDS011;11222;50.872;4.312;2023-02-21T08:48:01;39.35;;;14.48;;
22111;SDS011;11222;50.872;4.312;2023-02-21T08:50:28;40.63;;;15.35;;
22111;SDS011;11222;50.872;4.312;2023-02-21T08:52:54;40.15;;;15.43;;
22111;SDS011;11222;50.872;4.312;2023-02-21T08:55:20;37.20;;;14.20;;
22111;SDS011;11222;50.872;4.312;2023-02-21T08:57:47;33.60;;;13.80;;
22111;SDS011;11222;50.872;4.312;2023-02-21T09:00:14;34.30;;;12.73;;
22111;SDS011;11222;50.872;4.312;2023-02-21T09:02:40;34.00;;;13.80;;
22111;SDS011;11222;50.872;4.312;2023-02-21T09:05:11;36.95;;;14.18;;
22111;SDS011;11222;50.872;4.312;2023-02-21T09:07:39;35.55;;;14.75;;
22111;SDS011;11222;50.872;4.312;2023-02-21T09:10:05;36.08;;;14.55;;
22111;SDS011;11222;50.872;4.312;2023-02-21T09:12:33;39.55;;;15.98;;
22111;SDS011;11222;50.872;4.312;2023-02-21T09:14:59;33.25;;;13.80;;
22111;SDS011;11222;50.872;4.312;2023-02-21T09:17:25;39.50;;;15.13;;
22111;SDS011;11222;50.872;4.312;2023-02-21T09:19:51;42.78;;;15.40;;
22111;SDS011;11222;50.872;4.312;2023-02-21T09:22:17;42.95;;;15.70;;
22111;SDS011;11222;50.872;4.312;2023-02-21T09:24:43;40.15;;;15.05;;
22111;SDS011;11222;50.872;4.312;2023-02-21T09:27:09;40.00;;;15.57;;
22111;SDS011;11222;50.872;4.312;2023-02-21T09:29:35;46.80;;;15.82;;
22111;SDS011;11222;50.872;4.312;2023-02-21T09:32:01;44.75;;;16.38;;
22111;SDS011;11222;50.872;4.312;2023-02-21T09:34:27;43.47;;;15.50;;
22111;SDS011;11222;50.872;4.312;2023-02-21T09:36:54;44.25;;;14.60;;
22111;SDS011;11222;50.872;4.312;2023-02-21T09:39:20;46.80;;;15.32;;
22111;SDS011;11222;50.872;4.312;2023-02-21T09:41:47;42.85;;;15.38;;
22111;SDS011;11222;50.872;4.312;2023-02-21T09:44:16;39.83;;;15.10;;
22111;SDS011;11222;50.872;4.312;2023-02-21T09:46:46;46.15;;;14.88;;
22111;SDS011;11222;50.872;4.312;2023-02-21T09:51:49;42.85;;;15.05;;
22111;SDS011;11222;50.872;4.312;2023-02-21T09:54:18;45.30;;;15.65;;
22111;SDS011;11222;50.872;4.312;2023-02-21T09:56:50;47.23;;;16.20;;
22111;SDS011;11222;50.872;4.312;2023-02-21T09:59:15;41.78;;;14.38;;
22111;SDS011;11222;50.872;4.312;2023-02-21T10:02:00;40.28;;;15.00;;
22111;SDS011;11222;50.872;4.312;2023-02-21T10:07:26;36.80;;;14.88;;
22111;SDS011;11222;50.872;4.312;2023-02-21T10:10:13;33.00;;;12.98;;
22111;SDS011;11222;50.872;4.312;2023-02-21T10:13:09;28.58;;;12.13;;
22111;SDS011;11222;50.872;4.312;2023-02-21T10:21:50;24.23;;;10.70;;
22111;SDS011;11222;50.872;4.312;2023-02-21T10:24:20;27.70;;;10.90;;
22111;SDS011;11222;50.872;4.312;2023-02-21T10:26:55;30.90;;;11.55;;
22111;SDS011;11222;50.872;4.312;2023-02-21T10:29:26;29.95;;;13.02;;
22111;SDS011;11222;50.872;4.312;2023-02-21T10:32:06;27.33;;;11.90;;
22111;SDS011;11222;50.872;4.312;2023-02-21T10:34:33;29.73;;;12.02;;
22111;SDS011;11222;50.872;4.312;2023-02-21T10:37:43;28.00;;;12.40;;
22111;SDS011;11222;50.872;4.312;2023-02-21T10:39:52;30.45;;;13.57;;
22111;SDS011;11222;50.872;4.312;2023-02-21T10:42:27;28.83;;;12.13;;
22111;SDS011;11222;50.872;4.312;2023-02-21T10:44:55;28.00;;;12.40;;
22111;SDS011;11222;50.872;4.312;2023-02-21T10:47:22;25.85;;;12.13;;
22111;SDS011;11222;50.872;4.312;2023-02-21T10:50:04;28.52;;;12.50;;
22111;SDS011;11222;50.872;4.312;2023-02-21T10:52:35;24.70;;;11.80;;
22111;SDS011;11222;50.872;4.312;2023-02-21T10:55:19;28.13;;;13.32;;
22111;SDS011;11222;50.872;4.312;2023-02-21T10:57:49;29.90;;;13.40;;
22111;SDS011;11222;50.872;4.312;2023-02-21T11:00:25;24.73;;;12.20;;
22111;SDS011;11222;50.872;4.312;2023-02-21T11:03:05;29.73;;;13.57;;
22111;SDS011;11222;50.872;4.312;2023-02-21T11:05:55;24.85;;;12.40;;
22111;SDS011;11222;50.872;4.312;2023-02-21T11:08:38;29.73;;;14.13;;
22111;SDS011;11222;50.872;4.312;2023-02-21T11:11:08;25.80;;;12.75;;
22111;SDS011;11222;50.872;4.312;2023-02-21T11:13:34;23.88;;;12.20;;
22111;SDS011;11222;50.872;4.312;2023-02-21T11:16:34;23.00;;;11.55;;
22111;SDS011;11222;50.872;4.312;2023-02-21T11:19:05;21.02;;;11.82;;
22111;SDS011;11222;50.872;4.312;2023-02-21T11:21:31;17.88;;;10.10;;
22111;SDS011;11222;50.872;4.312;2023-02-21T11:23:58;21.45;;;10.45;;
22111;SDS011;11222;50.872;4.312;2023-02-21T11:26:29;17.83;;;9.52;;
22111;SDS011;11222;50.872;4.312;2023-02-21T11:29:14;20.23;;;10.20;;
22111;SDS011;11222;50.872;4.312;2023-02-21T11:31:48;22.95;;;9.98;;
22111;SDS011;11222;50.872;4.312;2023-02-21T11:34:16;19.58;;;10.65;;
22111;SDS011;11222;50.872;4.312;2023-02-21T11:36:44;19.23;;;10.32;;
22111;SDS011;11222;50.872;4.312;2023-02-21T11:41:57;18.67;;;10.23;;
22111;SDS011;11222;50.872;4.312;2023-02-21T11:44:46;19.40;;;10.18;;
22111;SDS011;11222;50.872;4.312;2023-02-21T11:47:55;23.92;;;10.13;;
22111;SDS011;11222;50.872;4.312;2023-02-21T11:50:10;15.27;;;8.50;;
22111;SDS011;11222;50.872;4.312;2023-02-21T11:52:52;15.90;;;8.45;;
22111;SDS011;11222;50.872;4.312;2023-02-21T11:55:27;14.52;;;8.13;;
22111;SDS011;11222;50.872;4.312;2023-02-21T12:00:42;15.95;;;8.90;;
22111;SDS011;11222;50.872;4.312;2023-02-21T12:09:27;22.08;;;9.48;;
22111;SDS011;11222;50.872;4.312;2023-02-21T12:14:48;16.63;;;8.65;;
22111;SDS011;11222;50.872;4.312;2023-02-21T12:25:43;19.27;;;10.38;;
22111;SDS011;11222;50.872;4.312;2023-02-21T12:39:25;22.65;;;11.57;;
22111;SDS011;11222;50.872;4.312;2023-02-21T12:47:55;21.55;;;11.15;;
22111;SDS011;11222;50.872;4.312;2023-02-21T12:50:31;19.73;;;11.02;;
22111;SDS011;11222;50.872;4.312;2023-02-21T12:56:28;23.63;;;11.77;;
22111;SDS011;11222;50.872;4.312;2023-02-21T12:59:01;20.42;;;11.55;;
22111;SDS011;11222;50.872;4.312;2023-02-21T13:01:33;22.90;;;11.85;;
22111;SDS011;11222;50.872;4.312;2023-02-21T13:06:51;23.63;;;13.35;;
22111;SDS011;11222;50.872;4.312;2023-02-21T13:09:35;22.08;;;11.52;;
22111;SDS011;11222;50.872;4.312;2023-02-21T13:12:13;22.75;;;11.20;;
22111;SDS011;11222;50.872;4.312;2023-02-21T13:14:49;21.52;;;11.55;;
22111;SDS011;11222;50.872;4.312;2023-02-21T13:19:47;25.50;;;13.60;;
22111;SDS011;11222;50.872;4.312;2023-02-21T13:22:23;26.02;;;13.38;;
22111;SDS011;11222;50.872;4.312;2023-02-21T13:28:26;22.17;;;11.35;;
22111;SDS011;11222;50.872;4.312;2023-02-21T13:30:51;24.58;;;12.38;;
22111;SDS011;11222;50.872;4.312;2023-02-21T13:36:31;22.50;;;12.30;;
22111;SDS011;11222;50.872;4.312;2023-02-21T13:41:42;25.58;;;13.68;;
22111;SDS011;11222;50.872;4.312;2023-02-21T13:44:17;28.70;;;14.30;;
22111;SDS011;11222;50.872;4.312;2023-02-21T14:10:48;25.58;;;12.50;;
22111;SDS011;11222;50.872;4.312;2023-02-21T14:13:36;27.55;;;13.23;;
22111;SDS011;11222;50.872;4.312;2023-02-21T14:16:33;31.13;;;15.10;;
22111;SDS011;11222;50.872;4.312;2023-02-21T14:19:10;29.73;;;14.68;;
22111;SDS011;11222;50.872;4.312;2023-02-21T14:22:01;29.50;;;14.73;;
22111;SDS011;11222;50.872;4.312;2023-02-21T14:24:29;22.75;;;13.75;;
22111;SDS011;11222;50.872;4.312;2023-02-21T14:29:41;27.63;;;14.40;;
22111;SDS011;11222;50.872;4.312;2023-02-21T14:32:42;30.17;;;13.63;;
22111;SDS011;11222;50.872;4.312;2023-02-21T14:52:27;27.27;;;13.90;;
22111;SDS011;11222;50.872;4.312;2023-02-21T15:00:57;26.67;;;15.38;;
22111;SDS011;11222;50.872;4.312;2023-02-21T15:03:41;24.58;;;13.68;;
22111;SDS011;11222;50.872;4.312;2023-02-21T15:06:13;25.10;;;13.00;;
22111;SDS011;11222;50.872;4.312;2023-02-21T15:08:47;23.90;;;13.87;;
22111;SDS011;11222;50.872;4.312;2023-02-21T15:11:33;22.75;;;13.55;;
22111;SDS011;11222;50.872;4.312;2023-02-21T15:16:47;24.85;;;13.20;;
22111;SDS011;11222;50.872;4.312;2023-02-21T15:19:28;29.55;;;16.67;;
22111;SDS011;11222;50.872;4.312;2023-02-21T15:27:33;25.42;;;14.15;;
22111;SDS011;11222;50.872;4.312;2023-02-21T15:30:35;24.88;;;14.00;;
22111;SDS011;11222;50.872;4.312;2023-02-21T15:33:11;25.77;;;13.65;;
22111;SDS011;11222;50.872;4.312;2023-02-21T15:41:04;23.58;;;13.02;;
22111;SDS011;11222;50.872;4.312;2023-02-21T15:46:20;18.88;;;11.25;;
22111;SDS011;11222;50.872;4.312;2023-02-21T15:48:48;19.00;;;11.27;;
22111;SDS011;11222;50.872;4.312;2023-02-21T15:51:16;24.17;;;12.85;;
22111;SDS011;11222;50.872;4.312;2023-02-21T15:53:41;22.00;;;11.77;;
22111;SDS011;11222;50.872;4.312;2023-02-21T15:56:21;22.40;;;11.85;;
22111;SDS011;11222;50.872;4.312;2023-02-21T16:01:35;22.77;;;12.07;;
22111;SDS011;11222;50.872;4.312;2023-02-21T16:07:05;25.15;;;13.13;;
22111;SDS011;11222;50.872;4.312;2023-02-21T16:09:31;26.17;;;12.82;;
22111;SDS011;11222;50.872;4.312;2023-02-21T16:14:41;26.23;;;15.93;;
22111;SDS011;11222;50.872;4.312;2023-02-21T16:17:12;21.95;;;12.30;;
22111;SDS011;11222;50.872;4.312;2023-02-21T16:19:46;22.45;;;13.27;;
22111;SDS011;11222;50.872;4.312;2023-02-21T16:22:27;22.95;;;12.20;;
22111;SDS011;11222;50.872;4.312;2023-02-21T16:27:32;23.77;;;13.20;;
22111;SDS011;11222;50.872;4.312;2023-02-21T16:29:58;22.27;;;12.57;;
22111;SDS011;11222;50.872;4.312;2023-02-21T16:32:23;19.83;;;11.50;;
22111;SDS011;11222;50.872;4.312;2023-02-21T16:34:49;28.13;;;13.57;;
22111;SDS011;11222;50.872;4.312;2023-02-21T16:37:19;25.83;;;13.50;;
22111;SDS011;11222;50.872;4.312;2023-02-21T16:39:46;23.23;;;13.45;;
22111;SDS011;11222;50.872;4.312;2023-02-21T16:42:12;24.40;;;14.75;;
22111;SDS011;11222;50.872;4.312;2023-02-21T16:44:38;28.08;;;15.80;;
22111;SDS011;11222;50.872;4.312;2023-02-21T16:47:04;25.52;;;15.05;;
22111;SDS011;11222;50.872;4.312;2023-02-21T16:49:31;23.67;;;14.40;;
22111;SDS011;11222;50.872;4.312;2023-02-21T16:51:56;28.85;;;18.52;;
22111;SDS011;11222;50.872;4.312;2023-02-21T16:54:22;22.75;;;14.90;;
22111;SDS011;11222;50.872;4.312;2023-02-21T16:56:49;23.67;;;15.30;;
22111;SDS011;11222;50.872;4.312;2023-02-21T16:59:18;24.08;;;14.98;;
22111;SDS011;11222;50.872;4.312;2023-02-21T17:01:45;26.42;;;14.75;;
22111;SDS011;11222;50.872;4.312;2023-02-21T17:04:15;24.77;;;14.70;;
22111;SDS011;11222;50.872;4.312;2023-02-21T17:06:46;25.90;;;14.27;;
22111;SDS011;11222;50.872;4.312;2023-02-21T17:09:19;23.20;;;14.15;;
22111;SDS011;11222;50.872;4.312;2023-02-21T17:11:46;22.90;;;13.75;;
22111;SDS011;11222;50.872;4.312;2023-02-21T17:14:12;28.35;;;14.38;;
22111;SDS011;11222;50.872;4.312;2023-02-21T17:16:38;31.00;;;17.48;;
22111;SDS011;11222;50.872;4.312;2023-02-21T17:19:03;31.25;;;16.83;;
22111;SDS011;11222;50.872;4.312;2023-02-21T17:21:30;33.47;;;16.52;;
22111;SDS011;11222;50.872;4.312;2023-02-21T17:23:56;24.63;;;14.88;;
22111;SDS011;11222;50.872;4.312;2023-02-21T17:26:23;26.38;;;15.10;;
22111;SDS011;11222;50.872;4.312;2023-02-21T17:28:49;27.63;;;15.23;;
22111;SDS011;11222;50.872;4.312;2023-02-21T17:31:16;26.60;;;14.95;;
22111;SDS011;11222;50.872;4.312;2023-02-21T17:33:43;28.23;;;16.02;;
22111;SDS011;11222;50.872;4.312;2023-02-21T17:36:18;31.52;;;17.80;;
22111;SDS011;11222;50.872;4.312;2023-02-21T17:38:45;42.25;;;20.52;;
22111;SDS011;11222;50.872;4.312;2023-02-21T17:41:12;37.22;;;21.48;;
22111;SDS011;11222;50.872;4.312;2023-02-21T17:43:39;42.72;;;21.00;;